createdAt,value
2023-05-06T00:02:50.745Z,5.50
2023-05-06T00:05:44.701Z,5.43
2023-05-06T00:08:38.722Z,4.70
2023-05-06T00:11:32.714Z,5.88
2023-05-06T00:14:26.710Z,5.63
2023-05-06T00:17:20.692Z,5.78
2023-05-06T00:20:16.935Z,5.80
2023-05-06T00:23:10.758Z,5.97
2023-05-06T00:26:04.714Z,5.03
2023-05-06T00:28:51.768Z,5.20
2023-05-06T00:31:45.785Z,5.68
2023-05-06T00:34:33.138Z,6.90
2023-05-06T00:37:26.855Z,6.53
2023-05-06T00:40:20.841Z,6.40
2023-05-06T00:43:08.027Z,6.47
2023-05-06T00:46:01.954Z,5.90
2023-05-06T00:48:49.121Z,7.03
2023-05-06T00:51:43.771Z,5.90
2023-05-06T00:54:31.008Z,7.10
2023-05-06T00:57:24.780Z,7.10
2023-05-06T01:00:18.883Z,7.05
2023-05-06T01:03:06.214Z,6.82
2023-05-06T01:06:11.808Z,7.30
2023-05-06T01:09:26.758Z,5.47
2023-05-06T01:12:30.829Z,6.00
2023-05-06T01:15:28.338Z,7.32
2023-05-06T01:18:27.882Z,7.32
2023-05-06T01:21:23.866Z,7.07
2023-05-06T01:24:17.791Z,7.05
2023-05-06T01:27:05.153Z,7.32
2023-05-06T01:29:58.779Z,6.68
2023-05-06T01:33:11.841Z,7.38
2023-05-06T01:39:29.842Z,7.55
2023-05-06T01:42:17.951Z,7.65
2023-05-06T01:45:13.868Z,7.82
2023-05-06T01:48:07.918Z,7.03
2023-05-06T01:50:55.403Z,7.35
2023-05-06T01:53:48.877Z,7.47
2023-05-06T01:56:36.296Z,6.80
2023-05-06T01:59:29.962Z,7.03
2023-05-06T02:02:17.361Z,7.68
2023-05-06T02:05:11.098Z,7.57
2023-05-06T02:07:58.491Z,7.82
2023-05-06T02:10:51.911Z,7.53
2023-05-06T02:13:45.921Z,7.15
2023-05-06T02:16:39.988Z,7.57
2023-05-06T02:19:33.905Z,8.43
2023-05-06T02:22:21.128Z,8.15
2023-05-06T02:25:14.919Z,7.35
2023-05-06T02:28:02.021Z,8.27
2023-05-06T02:30:55.939Z,8.90
2023-05-06T02:33:43.443Z,8.55
2023-05-06T02:36:36.955Z,8.30
2023-05-06T02:39:24.370Z,8.18
2023-05-06T02:42:21.036Z,8.00
2023-05-06T02:45:09.075Z,8.05
2023-05-06T02:48:02.917Z,8.52
2023-05-06T02:50:58.051Z,8.45
2023-05-06T02:53:46.411Z,8.48
2023-05-06T02:56:39.962Z,8.70
2023-05-06T02:59:27.037Z,7.60
2023-05-06T03:02:20.959Z,9.55
2023-05-06T03:05:08.737Z,10.32
2023-05-06T03:08:02.984Z,8.57
2023-05-06T03:10:50.834Z,9.40
2023-05-06T03:13:43.991Z,8.00
2023-05-06T03:16:31.165Z,9.45
2023-05-06T03:19:24.950Z,9.55
2023-05-06T03:22:12.020Z,10.70
2023-05-06T03:25:05.993Z,10.70
2023-05-06T03:27:53.068Z,10.45
2023-05-06T03:30:47.020Z,9.18
2023-05-06T03:33:34.086Z,10.50
2023-05-06T03:36:30.030Z,10.18
2023-05-06T03:39:17.146Z,9.07
2023-05-06T03:42:11.032Z,9.05
2023-05-06T03:45:05.057Z,9.90
2023-05-06T03:47:52.317Z,8.50
2023-05-06T03:50:46.015Z,9.38
2023-05-06T03:53:33.182Z,8.77
2023-05-06T03:56:28.077Z,10.30
2023-05-06T03:59:15.274Z,9.05
2023-05-06T04:02:09.109Z,9.85
2023-05-06T04:05:03.086Z,9.45
2023-05-06T04:07:50.411Z,10.68
2023-05-06T04:10:48.071Z,9.85
2023-05-06T04:13:35.398Z,9.95
2023-05-06T04:16:29.109Z,9.27
2023-05-06T04:19:17.824Z,9.02
2023-05-06T04:22:11.120Z,9.95
2023-05-06T04:25:07.129Z,8.60
2023-05-06T04:28:01.112Z,9.57
2023-05-06T04:30:55.111Z,9.75
2023-05-06T04:33:49.087Z,9.90
2023-05-06T04:36:36.531Z,8.60
2023-05-06T04:39:31.123Z,8.98
2023-05-06T04:42:25.145Z,8.07
2023-05-06T04:45:12.437Z,6.88
2023-05-06T04:48:06.206Z,7.20
2023-05-06T04:51:00.159Z,6.35
2023-05-06T04:53:47.256Z,6.90
2023-05-06T04:56:41.146Z,7.20
2023-05-06T04:59:35.160Z,8.05
2023-05-06T05:02:29.224Z,7.90
2023-05-06T05:05:16.573Z,6.65
2023-05-06T05:08:10.271Z,5.30
2023-05-06T05:10:57.334Z,5.07
2023-05-06T05:13:51.239Z,5.50
2023-05-06T05:16:38.459Z,5.72
2023-05-06T05:19:32.192Z,5.70
2023-05-06T05:22:26.184Z,4.65
2023-05-06T05:25:13.617Z,5.07
2023-05-06T05:28:07.216Z,5.03
2023-05-06T05:30:54.528Z,4.18
2023-05-06T05:33:48.291Z,3.80
2023-05-06T05:36:42.166Z,3.90
2023-05-06T05:39:29.244Z,3.40
2023-05-06T05:42:23.199Z,3.97
2023-05-06T05:45:10.977Z,4.80
2023-05-06T05:48:05.281Z,4.43
2023-05-06T05:51:00.419Z,3.40
2023-05-06T05:54:01.338Z,3.63
2023-05-06T05:56:48.565Z,4.75
2023-05-06T05:59:44.296Z,3.10
2023-05-06T06:02:38.276Z,3.40
2023-05-06T06:05:32.269Z,3.45
2023-05-06T06:08:26.277Z,3.13
2023-05-06T06:11:20.248Z,4.38
2023-05-06T06:14:07.393Z,3.13
2023-05-06T06:17:01.379Z,3.20
2023-05-06T06:19:48.515Z,4.47
2023-05-06T06:22:42.399Z,4.47
2023-05-06T06:25:36.297Z,3.35
2023-05-06T06:28:23.476Z,4.20
2023-05-06T06:31:17.346Z,3.35
2023-05-06T06:34:17.447Z,4.88
2023-05-06T06:37:11.331Z,6.72
2023-05-06T06:40:05.279Z,6.03
2023-05-06T06:42:59.355Z,6.60
2023-05-06T06:45:56.427Z,8.32
2023-05-06T06:48:43.647Z,7.28
2023-05-06T06:51:38.387Z,6.15
2023-05-06T06:54:32.319Z,5.22
2023-05-06T06:57:26.319Z,4.35
2023-05-06T07:00:20.339Z,4.65
2023-05-06T07:03:07.539Z,5.70
2023-05-06T07:06:01.324Z,5.40
2023-05-06T07:08:48.543Z,6.15
2023-05-06T07:11:42.356Z,6.22
2023-05-06T07:14:36.348Z,7.80
2023-05-06T07:17:30.418Z,4.78
2023-05-06T07:20:24.344Z,4.63
2023-05-06T07:23:18.417Z,5.13
2023-05-06T07:26:05.826Z,4.47
2023-05-06T07:28:59.443Z,5.15
2023-05-06T07:31:53.383Z,3.85
2023-05-06T07:34:47.398Z,4.38
2023-05-06T07:37:41.409Z,4.68
2023-05-06T07:40:35.364Z,4.13
2023-05-06T07:43:29.450Z,3.83
2023-05-06T07:46:16.950Z,4.15
2023-05-06T07:49:10.426Z,4.30
2023-05-06T07:51:57.552Z,4.07
2023-05-06T07:54:51.475Z,3.33
2023-05-06T07:57:45.410Z,3.40
2023-05-06T08:00:32.473Z,4.63
2023-05-06T08:03:26.759Z,5.05
2023-05-06T08:06:14.171Z,4.65
2023-05-06T08:09:08.483Z,8.65
2023-05-06T08:11:56.274Z,8.70
2023-05-06T08:14:49.440Z,6.78
2023-05-06T08:17:38.804Z,5.80
2023-05-06T08:20:32.499Z,12.27
2023-05-06T08:23:20.109Z,8.88
2023-05-06T08:26:13.478Z,7.80
2023-05-06T08:29:07.491Z,7.90
2023-05-06T08:31:54.784Z,7.10
2023-05-06T08:34:51.679Z,5.65
2023-05-06T08:37:38.859Z,8.02
2023-05-06T08:40:35.579Z,9.13
2023-05-06T08:43:27.534Z,7.75
2023-05-06T08:46:21.687Z,7.00
2023-05-06T08:49:16.563Z,9.57
2023-05-06T08:52:12.493Z,7.10
2023-05-06T08:55:11.836Z,7.00
2023-05-06T08:58:06.531Z,8.35
2023-05-06T09:00:53.719Z,8.77
2023-05-06T09:03:47.564Z,6.47
2023-05-06T09:06:41.583Z,12.70
2023-05-06T09:09:29.214Z,8.13
2023-05-06T09:12:22.563Z,10.95
2023-05-06T09:15:10.489Z,8.18
2023-05-06T09:18:04.648Z,7.97
2023-05-06T09:21:00.147Z,6.15
2023-05-06T09:23:54.630Z,5.43
2023-05-06T09:26:43.632Z,7.90
2023-05-06T09:29:37.617Z,5.43
2023-05-06T09:32:25.236Z,4.68
2023-05-06T09:35:18.627Z,4.72
2023-05-06T09:38:07.302Z,6.03
2023-05-06T09:41:01.608Z,5.43
2023-05-06T09:43:55.583Z,5.18
2023-05-06T09:46:42.928Z,5.30
2023-05-06T09:49:36.588Z,6.18
2023-05-06T09:52:23.885Z,5.32
2023-05-06T09:55:18.618Z,4.78
2023-05-06T09:58:13.686Z,3.67
2023-05-06T10:01:08.190Z,4.60
2023-05-06T10:04:03.825Z,5.07
2023-05-06T10:06:54.862Z,4.90
2023-05-06T10:09:48.607Z,6.22
2023-05-06T10:12:38.912Z,4.00
2023-05-06T10:15:33.672Z,5.00
2023-05-06T10:18:22.068Z,3.40
2023-05-06T10:21:23.655Z,4.43
2023-05-06T10:24:16.386Z,2.60
2023-05-06T10:27:12.721Z,2.65
2023-05-06T10:30:00.933Z,2.97
2023-05-06T10:32:56.780Z,3.42
2023-05-06T10:36:01.689Z,4.63
2023-05-06T10:38:57.263Z,4.07
2023-05-06T10:41:50.772Z,4.03
2023-05-06T10:44:56.526Z,4.40
2023-05-06T10:48:04.686Z,4.65
2023-05-06T10:51:05.702Z,5.82
2023-05-06T10:53:57.171Z,5.63
2023-05-06T10:56:56.724Z,5.97
2023-05-06T10:59:46.871Z,7.78
2023-05-06T11:02:40.757Z,5.65
2023-05-06T11:05:28.059Z,6.38
2023-05-06T11:08:22.693Z,4.72
2023-05-06T11:11:54.751Z,5.60
2023-05-06T11:14:41.896Z,4.60
2023-05-06T11:17:38.843Z,5.75
2023-05-06T11:20:26.860Z,3.75
2023-05-06T11:23:20.790Z,4.57
2023-05-06T11:26:09.202Z,4.35
2023-05-06T11:29:08.775Z,5.70
2023-05-06T11:31:55.927Z,4.82
2023-05-06T11:34:49.732Z,5.53
2023-05-06T11:37:43.801Z,5.57
2023-05-06T11:40:37.771Z,4.38
2023-05-06T11:43:24.999Z,7.28
2023-05-06T11:46:18.898Z,3.10
2023-05-06T11:49:12.774Z,3.80
2023-05-06T11:52:00.002Z,5.43
2023-05-06T11:54:53.800Z,4.63
2023-05-06T11:57:44.724Z,5.70
2023-05-06T12:00:38.843Z,3.45
2023-05-06T12:03:28.681Z,2.95
2023-05-06T12:06:24.521Z,4.57
2023-05-06T12:09:19.860Z,3.63
2023-05-06T12:12:14.819Z,4.53
2023-05-06T12:15:10.864Z,3.30
2023-05-06T12:17:58.320Z,3.65
2023-05-06T12:20:51.890Z,3.47
2023-05-06T12:23:54.240Z,4.20
2023-05-06T12:26:54.809Z,4.40
2023-05-06T12:29:52.909Z,4.40
2023-05-06T12:33:05.903Z,4.85
2023-05-06T12:35:54.758Z,4.55
2023-05-06T12:39:07.857Z,4.82
2023-05-06T12:41:54.939Z,3.67
2023-05-06T12:44:48.902Z,2.92
2023-05-06T12:47:36.125Z,3.65
2023-05-06T12:50:41.904Z,3.65
2023-05-06T12:53:40.930Z,4.07
2023-05-06T12:56:28.034Z,3.72
2023-05-06T12:59:21.917Z,3.47
2023-05-06T13:02:15.983Z,3.20
2023-05-06T13:05:10.113Z,3.55
2023-05-06T13:08:03.938Z,5.03
2023-05-06T13:10:51.080Z,3.63
2023-05-06T13:13:44.915Z,5.78
2023-05-06T13:16:32.410Z,5.28
2023-05-06T13:22:18.728Z,2.80
2023-05-06T13:25:12.940Z,3.63
2023-05-06T13:28:00.000Z,5.30
2023-05-06T13:30:54.020Z,3.72
2023-05-06T13:33:41.127Z,4.70
2023-05-06T13:36:35.149Z,3.60
2023-05-06T13:39:23.388Z,5.10
2023-05-06T13:42:16.971Z,4.45
2023-05-06T13:45:10.986Z,3.20
2023-05-06T13:47:58.081Z,3.38
2023-05-06T13:50:52.958Z,3.65
2023-05-06T13:53:40.093Z,3.35
2023-05-06T13:56:34.018Z,3.00
2023-05-06T13:59:21.165Z,3.13
2023-05-06T14:02:15.201Z,3.13
2023-05-06T14:05:02.927Z,3.50
2023-05-06T14:07:57.310Z,4.47
2023-05-06T14:10:44.471Z,3.08
2023-05-06T14:13:40.022Z,3.08
2023-05-06T14:16:27.175Z,3.88
2023-05-06T14:19:21.342Z,2.85
2023-05-06T14:22:15.031Z,3.30
2023-05-06T14:25:02.168Z,4.07
2023-05-06T14:27:56.059Z,4.00
2023-05-06T14:30:44.616Z,4.70
2023-05-06T14:33:38.087Z,4.00
2023-05-06T14:36:25.302Z,2.78
2023-05-06T14:39:20.182Z,2.60
2023-05-06T14:42:07.235Z,3.35
2023-05-06T14:45:01.096Z,2.45
2023-05-06T14:47:48.307Z,2.30
2023-05-06T14:50:42.083Z,3.47
2023-05-06T14:53:37.127Z,2.28
2023-05-06T14:56:31.067Z,2.15
2023-05-06T14:59:25.181Z,4.13
2023-05-06T15:02:12.259Z,3.35
2023-05-06T15:05:06.136Z,2.85
2023-05-06T15:07:53.289Z,2.80
2023-05-06T15:10:48.240Z,5.05
2023-05-06T15:13:42.174Z,4.07
2023-05-06T15:16:36.217Z,2.80
2023-05-06T15:19:30.113Z,2.78
2023-05-06T15:22:24.112Z,4.05
2023-05-06T15:25:19.367Z,4.13
2023-05-06T15:31:10.156Z,3.10
2023-05-06T15:34:04.143Z,3.00
2023-05-06T15:37:00.153Z,3.10
2023-05-06T15:39:47.911Z,2.85
2023-05-06T15:42:44.173Z,2.33
2023-05-06T15:45:31.408Z,2.00
2023-05-06T15:48:25.180Z,1.88
2023-05-06T15:51:12.242Z,1.52
2023-05-06T15:54:06.197Z,2.00
2023-05-06T15:56:53.304Z,2.58
2023-05-06T15:59:47.201Z,3.05
2023-05-06T16:02:35.060Z,3.08
2023-05-06T16:05:29.182Z,2.58
2023-05-06T16:08:23.313Z,4.35
2023-05-06T16:11:10.467Z,4.40
2023-05-06T16:14:04.243Z,3.65
2023-05-06T16:16:51.408Z,3.75
2023-05-06T16:19:45.583Z,3.42
2023-05-06T16:22:32.673Z,2.40
2023-05-06T16:25:26.230Z,2.20
2023-05-06T16:28:13.388Z,3.00
2023-05-06T16:31:09.269Z,3.00
2023-05-06T16:34:03.305Z,2.58
2023-05-06T16:36:50.702Z,2.95
2023-05-06T16:39:44.223Z,3.80
2023-05-06T16:42:31.252Z,3.28
2023-05-06T16:45:25.299Z,2.20
2023-05-06T16:48:16.321Z,2.50
2023-05-06T16:51:10.264Z,3.28
2023-05-06T16:53:57.334Z,3.85
2023-05-06T16:56:52.532Z,3.13
2023-05-06T16:59:46.322Z,3.15
2023-05-06T17:02:33.676Z,3.17
2023-05-06T17:05:27.309Z,2.75
2023-05-06T17:08:22.078Z,2.85
2023-05-06T17:11:18.432Z,3.83
2023-05-06T17:14:18.333Z,4.60
2023-05-06T17:17:12.328Z,5.05
2023-05-06T17:19:59.456Z,4.40
2023-05-06T17:22:53.291Z,9.73
2023-05-06T17:25:40.522Z,8.88
2023-05-06T17:28:34.451Z,9.05
2023-05-06T17:31:28.534Z,10.68
2023-05-06T17:37:20.408Z,13.43
2023-05-06T17:40:08.199Z,12.88
2023-05-06T17:43:02.440Z,13.75
2023-05-06T17:45:49.560Z,15.18
2023-05-06T17:48:43.453Z,15.80
2023-05-06T17:51:37.404Z,14.10
2023-05-06T17:54:31.419Z,13.85
2023-05-06T17:57:18.571Z,14.52
2023-05-06T18:00:14.436Z,13.90
2023-05-06T18:03:08.482Z,12.63
2023-05-06T18:05:55.885Z,13.02
2023-05-06T18:08:51.410Z,12.43
2023-05-06T18:11:39.205Z,12.95
2023-05-06T18:14:32.396Z,12.48
2023-05-06T18:17:19.500Z,11.45
2023-05-06T18:20:14.520Z,11.27
2023-05-06T18:23:09.356Z,11.75
2023-05-06T18:26:03.397Z,10.70
2023-05-06T18:28:50.721Z,11.63
2023-05-06T18:31:44.510Z,11.70
2023-05-06T18:34:31.605Z,11.63
2023-05-06T18:37:25.439Z,10.70
2023-05-06T18:40:21.450Z,10.23
2023-05-06T18:43:08.643Z,10.55
2023-05-06T18:46:02.534Z,9.00
2023-05-06T18:48:49.990Z,9.35
2023-05-06T18:51:43.573Z,8.57
2023-05-06T18:54:30.732Z,8.77
2023-05-06T18:57:26.576Z,10.05
2023-05-06T19:00:13.984Z,10.30
2023-05-06T19:03:07.526Z,10.10
2023-05-06T19:05:54.656Z,9.43
2023-05-06T19:08:48.470Z,8.48
2023-05-06T19:11:42.515Z,8.05
2023-05-06T19:14:29.766Z,8.95
2023-05-06T19:17:23.615Z,9.35
2023-05-06T19:20:11.348Z,10.15
2023-05-06T19:23:04.583Z,10.00
2023-05-06T19:25:51.742Z,10.35
2023-05-06T19:28:46.519Z,9.68
2023-05-06T19:31:34.872Z,9.50
2023-05-06T19:34:28.523Z,8.80
2023-05-06T19:37:22.515Z,8.68
2023-05-06T19:40:10.116Z,8.70
2023-05-06T19:43:10.591Z,8.70
2023-05-06T19:45:57.753Z,8.38
2023-05-06T19:48:52.548Z,9.15
2023-05-06T19:51:39.663Z,10.15
2023-05-06T19:54:33.582Z,11.57
2023-05-06T19:57:20.863Z,10.65
2023-05-06T20:00:16.591Z,12.43
2023-05-06T20:03:04.132Z,11.18
2023-05-06T20:05:57.548Z,10.63
2023-05-06T20:08:51.594Z,11.45
2023-05-06T20:11:38.733Z,14.63
2023-05-06T20:14:32.555Z,14.05
2023-05-06T20:17:19.748Z,13.77
2023-05-06T20:20:17.617Z,12.57
2023-05-06T20:23:04.795Z,14.43
2023-05-06T20:25:58.618Z,14.07
2023-05-06T20:28:45.789Z,13.98
2023-05-06T20:31:39.651Z,15.45
2023-05-06T20:34:27.016Z,15.07
2023-05-06T20:37:20.624Z,13.80
2023-05-06T20:40:14.631Z,13.18
2023-05-06T20:43:04.635Z,13.85
2023-05-06T20:45:58.872Z,12.95
2023-05-06T20:48:46.441Z,10.38
2023-05-06T20:51:40.640Z,11.23
2023-05-06T20:54:27.897Z,11.88
2023-05-06T20:57:22.607Z,10.38
2023-05-06T21:00:11.192Z,13.43
2023-05-06T21:03:04.696Z,14.10
2023-05-06T21:05:58.657Z,14.75
2023-05-06T21:08:46.838Z,14.98
2023-05-06T21:11:40.640Z,14.32
2023-05-06T21:14:27.867Z,12.88
2023-05-06T21:17:21.719Z,11.75
2023-05-06T21:20:09.385Z,13.85
2023-05-06T21:23:03.680Z,15.80
2023-05-06T21:25:50.889Z,14.73
2023-05-06T21:28:44.724Z,14.30
2023-05-06T21:31:31.944Z,13.15
2023-05-06T21:34:25.665Z,15.15
2023-05-06T21:37:12.826Z,14.70
2023-05-06T21:40:08.807Z,14.32
2023-05-06T21:43:03.707Z,17.27
2023-05-06T21:45:50.764Z,16.70
2023-05-06T21:48:44.759Z,17.33
2023-05-06T21:51:33.588Z,16.63
2023-05-06T21:54:27.784Z,15.05
2023-05-06T21:57:14.884Z,15.75
2023-05-06T22:00:17.850Z,14.98
2023-05-06T22:03:11.861Z,15.25
2023-05-06T22:05:59.204Z,13.70
2023-05-06T22:08:52.755Z,13.35
2023-05-06T22:11:39.861Z,15.00
2023-05-06T22:14:41.026Z,14.18
2023-05-06T22:17:36.764Z,15.73
2023-05-06T22:20:30.794Z,14.85
2023-05-06T22:23:21.018Z,13.77
2023-05-06T22:26:14.784Z,13.10
2023-05-06T22:29:08.923Z,14.07
2023-05-06T22:31:56.061Z,12.48
2023-05-06T22:34:49.844Z,14.93
2023-05-06T22:37:36.904Z,14.48
2023-05-06T22:40:30.841Z,15.90
2023-05-06T22:43:17.975Z,14.70
2023-05-06T22:46:11.846Z,13.70
2023-05-06T22:49:00.158Z,14.45
2023-05-06T22:51:53.847Z,13.68
2023-05-06T22:54:47.882Z,12.45
2023-05-06T22:57:41.841Z,13.43
2023-05-06T23:00:35.821Z,12.40
2023-05-06T23:03:23.209Z,12.07
2023-05-06T23:06:17.839Z,10.57
2023-05-06T23:09:06.618Z,12.48
2023-05-06T23:12:00.010Z,12.77
2023-05-06T23:14:47.115Z,13.25
2023-05-06T23:17:41.025Z,12.35
2023-05-06T23:20:28.246Z,12.82
2023-05-06T23:23:21.863Z,12.75
2023-05-06T23:26:15.865Z,12.75
2023-05-06T23:29:03.001Z,13.93
2023-05-06T23:31:56.943Z,15.20
2023-05-06T23:34:44.148Z,13.00
2023-05-06T23:37:38.271Z,12.68
2023-05-06T23:40:25.350Z,15.35
2023-05-06T23:43:18.911Z,12.90
2023-05-06T23:46:06.050Z,11.85
2023-05-06T23:48:59.911Z,13.55
2023-05-06T23:51:46.961Z,13.35
2023-05-06T23:54:40.968Z,12.98
2023-05-06T23:57:28.103Z,13.95
